Aktuální počasí v Česku a ve světě - METAR

Seznam meteostanic umístěných nejčasteji na letišti v ČR a ve světě

Vyhledat místa podle abecedy:
A B C D E F G H I J K L M N O P Q R S T U V W X Y Z

Filtrovat:

ID stanice:
a/nebo
Název místa (fulltext):
 
Místo (ID)Naposledy načteno 
Temelín (Temelin) 15.06.2024 16:00 UTC Zobrazit data
Místo: Temelín
Teplota: 19 °C (pocitová: 18 °C)
Vítr: 3 m/s z(e) 280°
Počasí: skoro zataženo
Dohlednost: 60 km
Zákl. oblačnosti: 1/8 1080 m;4/8 2100 m
Vlhkost: 56%
Tahiti (NTAA) 15.06.2024 16:00 UTC Zobrazit METAR
NTAA 151600Z AUTO 12003KT 9999 SCT072 SCT082 23/20 Q1015 NOSIG
Taipei (RCTP) 15.06.2024 16:00 UTC Zobrazit METAR
RCTP 151600Z 25005KT 9999 FEW015 BKN045 28/26 Q1008 NOSIG RMK A2977
Taipei (RCSS) 15.06.2024 16:00 UTC Zobrazit METAR
RCSS 151600Z 09005KT 9999 FEW020 BKN040 29/26 Q1008 NOSIG RMK A2977
Tallinn (EETN) 15.06.2024 15:50 UTC Zobrazit METAR
EETN 151550Z 07008KT 040V110 CAVOK 17/09 Q1015 NOSIG
Tampere (EFTP) 15.06.2024 15:50 UTC Zobrazit METAR
EFTP 151550Z AUTO 24008KT CAVOK 17/06 Q1014
Tarawa I (NGTA) 15.06.2024 16:00 UTC Zobrazit METAR
NGTA 151600Z VRB02KT 9999 FEW019 SCT300 28/25 Q1008
Targu Mures (LRTM) 15.06.2024 16:00 UTC Zobrazit METAR
LRTM 151600Z 00000KT //// FEW042 24/14 Q1012
Tartu (EETU) 15.06.2024 15:50 UTC Zobrazit METAR
EETU 151550Z AUTO VRB03KT 9999 FEW084/// 19/08 Q1015
Tashkent (UTTT) 15.06.2024 16:00 UTC Zobrazit METAR
UTTT 151600Z 22004KT CAVOK 29/09 Q1007 R26R/CLRD70 NOSIG
Tbilisi (UGGG) Zatím nenačteno  
Tegucigalpa (MHTG) 15.06.2024 16:00 UTC Zobrazit METAR
MHTG 151600Z 00000KT 9999 BKN034 26/19 Q1016 A3000 NOSIG
Tehran (OIII) 15.06.2024 16:00 UTC Zobrazit METAR
OIII 151600Z 24010KT 9999 FEW035 31/05 Q1009 A2980 NOSIG
Tel Aviv (LLBG) 15.06.2024 15:50 UTC Zobrazit METAR
LLBG 151550Z 33008KT CAVOK 33/17 Q1005 NOSIG
Tenerife (GCTS) 15.06.2024 16:00 UTC Zobrazit METAR
GCTS 151600Z 07022KT 040V100 9999 FEW030 26/16 Q1018 WS R07 NOSIG
Thessaloniki (LGTS) 15.06.2024 15:50 UTC Zobrazit METAR
LGTS 151550Z 17013KT 9999 FEW030 28/17 Q1009 NOSIG
Thule (BGTL) 15.06.2024 15:55 UTC Zobrazit METAR
BGTL 151555Z AUTO 36006KT 9999 CLR 04/M03 A3003 RMK AO2 SLP154 T00381030 TSNO $
Timisoara (LRTR) 15.06.2024 16:00 UTC Zobrazit METAR
LRTR 151600Z VRB02KT CAVOK 27/09 Q1011
Tirana (LATI) 15.06.2024 15:50 UTC Zobrazit METAR
LATI 151550Z 31006KT 260V350 CAVOK 27/17 Q1012 NOSIG
Tokyo (RJTT) 15.06.2024 15:48 UTC Zobrazit METAR
RJTT 151548Z 07006KT 9999 -RA FEW005 SCT008 BKN060 23/21 Q1004 RMK 1ST005 3ST008 7SC060 A2965
Torp (ENTO) 15.06.2024 15:50 UTC Zobrazit METAR
ENTO 151550Z 07006KT 040V110 9999 -RA FEW006 OVC043 13/10 Q1003 TEMPO SHRA BKN014 FEW30CB
Toulouse (LFBO) 15.06.2024 16:00 UTC Zobrazit METAR
LFBO 151600Z AUTO 25007KT 220V280 9999 BKN041 BKN050 OVC066 20/12 Q1015 NOSIG
Tripoli (HLLT) 13.07.2014 03:50 UTC Zobrazit METAR
HLLT 130350Z 11009KT CAVOK 24/15 Q1015
Trondheim (ENVA) 15.06.2024 14:50 UTC Zobrazit METAR
ENVA 151450Z 15009KT 9999 SCT052 22/06 Q1006 RMK WIND 670FT 16012KT
Tunis (DTTA) 15.06.2024 16:00 UTC Zobrazit METAR
DTTA 151600Z 03009KT 360V060 9999 FEW030 34/15 Q1011
Turku (EFTU) 15.06.2024 15:50 UTC Zobrazit METAR
EFTU 151550Z AUTO 20008KT 170V240 CAVOK 17/03 Q1014
Reklama